Whittaker, West Virginia
Current Conditions -  °F | °C
As of 11:54 PM on Wednesday 26 Nov 2014 (Local Time) from KCRW Reporting Station
Haze Haze  
Wind Chill: 36°   Ceiling: 200
Heat Index: 36°   Visibility: 4mi
Dew Point: 34°   Wind: 0mph
Humidity: 93%   Direction: NA
Pressure: 30.01"   Gusts: NA
Location:  38.174°N, 81.3902°W
Report Text: KCRW 270454Z 00000KT 4SM BR OVC002 02/01 A3001 RMK AO2 SLP170 T00220011 400440006
Loading
Personal Weather Stations






























Interactive Weather Map New forecast layout! Learn more

10-Day Weather Forecast

Advertisements
Track Severe Weather on mobile